Time;durP1;ratioP1;P1;durP2;ratioP2;P2;SDS_P1;SDS_P2;PMS_P1;PMS_P2;Temp;Humidity;BMP_temperature;BMP_pressure;BME280_temperature;BME280_humidity;BME280_pressure;Samples;Min_cycle;Max_cycle;Signal;HPM_P1;HPM_P2
2021/06/29 00:01:05;;;;;;;5.30;3.80;;;19.50;99.90;;;;;;5056551;28;20526;-74
2021/06/29 00:03:33;;;;;;;5.07;4.57;;;19.50;99.90;;;;;;5055561;28;20537;-75
2021/06/29 00:06:01;;;;;;;4.00;3.77;;;19.50;99.90;;;;;;5056012;28;20442;-75
2021/06/29 00:08:28;;;;;;;4.30;3.90;;;19.40;99.90;;;;;;5055995;28;20474;-76
2021/06/29 00:10:55;;;;;;;4.50;4.10;;;19.50;99.90;;;;;;5056196;28;20570;-74
2021/06/29 00:13:22;;;;;;;4.53;4.13;;;19.50;99.90;;;;;;5055127;28;20473;-75
2021/06/29 00:15:49;;;;;;;5.17;4.67;;;19.50;99.90;;;;;;5055407;28;20522;-75
2021/06/29 00:18:17;;;;;;;5.10;4.70;;;19.60;99.90;;;;;;5056029;28;20578;-75
2021/06/29 00:20:44;;;;;;;4.73;4.40;;;19.60;99.90;;;;;;5055420;28;20581;-76
2021/06/29 00:23:12;;;;;;;5.40;4.37;;;19.60;99.90;;;;;;5054792;28;20463;-75
2021/06/29 00:25:39;;;;;;;4.70;4.40;;;19.60;99.90;;;;;;5055143;28;20872;-74
2021/06/29 00:28:06;;;;;;;4.70;4.40;;;19.60;99.90;;;;;;5055220;28;20565;-74
2021/06/29 00:30:33;;;;;;;5.20;4.20;;;19.60;99.90;;;;;;5055174;28;20508;-74
2021/06/29 00:33:00;;;;;;;4.20;3.90;;;19.60;99.90;;;;;;5055195;28;20458;-74
2021/06/29 00:35:27;;;;;;;4.40;4.10;;;19.50;99.90;;;;;;5055249;28;20477;-74
2021/06/29 00:37:54;;;;;;;4.20;3.90;;;19.50;99.90;;;;;;5055047;28;20948;-74
2021/06/29 00:40:22;;;;;;;4.43;4.13;;;19.40;99.90;;;;;;5054533;28;20527;-75
2021/06/29 00:42:49;;;;;;;3.80;3.50;;;19.30;99.90;;;;;;5054183;28;20550;-74
2021/06/29 00:45:16;;;;;;;4.70;4.30;;;19.30;99.90;;;;;;5054689;28;20466;-75
2021/06/29 00:47:43;;;;;;;4.23;3.83;;;19.30;99.90;;;;;;5054632;28;20489;-75
2021/06/29 00:50:12;;;;;;;4.30;3.90;;;19.30;99.90;;;;;;5054408;28;20470;-75
2021/06/29 00:52:41;;;;;;;4.27;3.80;;;19.30;99.90;;;;;;5054578;28;20483;-74
2021/06/29 00:55:11;;;;;;;5.30;4.10;;;19.30;99.90;;;;;;5054526;28;20909;-75
2021/06/29 00:57:41;;;;;;;4.13;3.83;;;19.30;99.90;;;;;;5054144;28;20533;-75
2021/06/29 01:00:10;;;;;;;5.83;3.90;;;19.20;99.90;;;;;;5054564;28;20551;-75
2021/06/29 01:02:37;;;;;;;4.33;3.97;;;19.20;99.90;;;;;;5054504;28;20520;-75
2021/06/29 01:05:06;;;;;;;6.10;4.77;;;19.20;99.90;;;;;;5054160;28;20430;-75
2021/06/29 01:07:33;;;;;;;4.37;4.07;;;19.20;99.90;;;;;;5054244;28;20545;-75
2021/06/29 01:10:00;;;;;;;4.07;3.80;;;19.10;99.90;;;;;;5054249;28;20518;-75
2021/06/29 01:12:27;;;;;;;4.43;4.13;;;19.20;99.90;;;;;;5054381;28;20528;-74
2021/06/29 01:14:55;;;;;;;6.57;4.27;;;19.10;99.90;;;;;;5059216;28;20486;-73
2021/06/29 01:17:24;;;;;;;4.50;4.20;;;19.10;99.90;;;;;;5067760;28;20492;-75
2021/06/29 01:19:52;;;;;;;4.27;3.97;;;19.10;99.90;;;;;;5067919;28;20466;-75
2021/06/29 01:22:23;;;;;;;4.60;4.20;;;19.10;99.90;;;;;;5066656;28;20448;-75
2021/06/29 01:24:52;;;;;;;4.40;4.10;;;19.10;99.90;;;;;;5053916;28;20423;-74
2021/06/29 01:27:30;;;;;;;7.63;4.70;;;19.10;99.90;;;;;;5054127;28;20472;-74
2021/06/29 01:32:41;;;;;;;4.87;4.40;;;19.00;99.90;;;;;;5054061;28;20428;-74
2021/06/29 01:35:10;;;;;;;5.37;4.80;;;19.00;99.90;;;;;;5054313;28;20462;-72
2021/06/29 01:37:39;;;;;;;4.80;4.20;;;19.00;99.90;;;;;;5054139;28;20898;-74
2021/06/29 01:40:10;;;;;;;4.70;4.30;;;19.00;99.90;;;;;;5053737;28;20993;-74
2021/06/29 01:42:37;;;;;;;4.60;4.20;;;19.00;99.90;;;;;;5054223;28;20467;-76
2021/06/29 01:45:05;;;;;;;4.80;4.43;;;19.00;99.90;;;;;;5053715;28;20875;-74
2021/06/29 01:47:38;;;;;;;5.37;4.87;;;19.00;99.90;;;;;;5054006;28;20478;-74
2021/06/29 01:50:09;;;;;;;6.90;4.60;;;19.00;99.90;;;;;;5055043;28;20490;-74
2021/06/29 01:52:38;;;;;;;6.40;5.13;;;19.00;99.90;;;;;;5053555;28;20544;-74
2021/06/29 01:55:06;;;;;;;4.83;4.40;;;19.00;99.90;;;;;;5055541;28;20508;-75
2021/06/29 01:57:35;;;;;;;5.73;4.43;;;19.00;99.90;;;;;;5056032;28;20979;-75
2021/06/29 02:00:02;;;;;;;5.57;5.03;;;19.00;99.90;;;;;;5058926;28;20459;-75
2021/06/29 02:02:29;;;;;;;7.60;4.87;;;19.00;99.90;;;;;;5067345;28;20450;-74
2021/06/29 02:04:56;;;;;;;7.20;4.80;;;19.00;99.90;;;;;;5070107;28;20457;-74
2021/06/29 02:07:23;;;;;;;6.50;5.10;;;19.00;99.90;;;;;;5071610;28;20585;-73
2021/06/29 02:09:51;;;;;;;5.20;4.70;;;19.00;99.90;;;;;;5070309;28;20983;-74
2021/06/29 02:12:18;;;;;;;6.07;5.13;;;19.00;99.90;;;;;;5065880;28;21041;-75
2021/06/29 02:14:45;;;;;;;5.83;5.33;;;19.00;99.90;;;;;;5056969;28;20523;-76
2021/06/29 02:17:12;;;;;;;6.33;4.73;;;19.00;99.90;;;;;;5054466;28;20498;-74
2021/06/29 02:19:39;;;;;;;6.87;4.87;;;19.00;99.90;;;;;;5054396;28;20441;-75
2021/06/29 02:22:06;;;;;;;5.50;5.07;;;19.00;99.90;;;;;;5054678;28;20468;-75
2021/06/29 02:24:33;;;;;;;5.40;4.90;;;19.00;99.90;;;;;;5054510;28;20438;-74
2021/06/29 02:27:02;;;;;;;5.40;4.67;;;18.90;99.90;;;;;;5054664;28;20456;-74
2021/06/29 02:29:29;;;;;;;5.80;5.23;;;18.90;99.90;;;;;;5054623;28;20829;-74
2021/06/29 02:31:56;;;;;;;5.77;5.37;;;19.00;99.90;;;;;;5054174;28;20478;-74
2021/06/29 02:34:23;;;;;;;5.50;5.00;;;18.90;99.90;;;;;;5054400;28;20494;-74
2021/06/29 02:36:50;;;;;;;5.80;4.93;;;18.90;99.90;;;;;;5054992;28;20499;-74
2021/06/29 02:39:16;;;;;;;5.47;5.07;;;18.90;99.90;;;;;;5054277;28;20527;-74
2021/06/29 02:41:43;;;;;;;6.40;5.80;;;19.00;99.90;;;;;;5056097;28;20472;-75
2021/06/29 02:44:12;;;;;;;6.33;5.20;;;18.90;99.90;;;;;;5057185;28;20459;-74
2021/06/29 02:46:39;;;;;;;5.10;4.70;;;18.90;99.90;;;;;;5054941;28;20444;-75
2021/06/29 02:49:06;;;;;;;6.00;4.70;;;18.90;99.90;;;;;;5055098;28;20493;-75
2021/06/29 02:51:35;;;;;;;5.50;5.10;;;18.90;99.90;;;;;;5053819;28;20531;-74
2021/06/29 02:54:02;;;;;;;5.50;4.87;;;18.90;99.90;;;;;;5053822;28;20434;-75
2021/06/29 02:56:38;;;;;;;5.70;5.20;;;18.90;99.90;;;;;;5055102;28;20904;-74
2021/06/29 02:59:05;;;;;;;5.57;5.13;;;18.90;99.90;;;;;;5056494;28;20483;-75
2021/06/29 03:01:33;;;;;;;5.60;5.20;;;19.00;99.90;;;;;;5056200;28;20467;-74
2021/06/29 03:04:00;;;;;;;5.60;5.07;;;19.00;99.90;;;;;;5054792;28;20540;-75
2021/06/29 03:06:27;;;;;;;5.07;4.73;;;19.10;99.90;;;;;;5054854;28;20561;-75
2021/06/29 03:08:54;;;;;;;5.17;4.77;;;19.00;99.90;;;;;;5055383;28;20545;-74
2021/06/29 03:11:21;;;;;;;5.00;4.53;;;19.10;99.90;;;;;;5058045;28;20495;-75
2021/06/29 03:13:48;;;;;;;4.90;4.60;;;19.10;99.70;;;;;;5056123;28;20459;-75
2021/06/29 03:16:16;;;;;;;4.50;4.10;;;19.20;99.40;;;;;;5054275;28;20438;-75
2021/06/29 03:18:45;;;;;;;5.20;4.70;;;19.20;98.70;;;;;;5054717;28;20538;-74
2021/06/29 03:21:12;;;;;;;4.50;3.73;;;19.20;98.60;;;;;;5055324;28;20581;-74
2021/06/29 03:23:39;;;;;;;4.70;4.30;;;19.20;97.40;;;;;;5052494;28;20452;-75
2021/06/29 03:26:07;;;;;;;6.80;4.40;;;19.10;97.20;;;;;;5053834;28;20873;-75
2021/06/29 03:28:34;;;;;;;7.40;3.73;;;19.20;97.20;;;;;;5060389;28;20477;-75
2021/06/29 03:31:01;;;;;;;6.23;3.43;;;19.20;96.90;;;;;;5061402;28;20433;-75
2021/06/29 03:33:28;;;;;;;3.73;3.53;;;19.20;96.30;;;;;;5055072;28;20495;-74
2021/06/29 03:35:57;;;;;;;4.10;3.83;;;19.20;95.80;;;;;;5052279;28;20453;-74
2021/06/29 03:38:24;;;;;;;4.53;3.70;;;19.20;95.10;;;;;;5052584;28;20562;-74
2021/06/29 03:40:51;;;;;;;4.20;3.90;;;19.20;95.10;;;;;;5052741;28;20434;-74
2021/06/29 03:43:18;;;;;;;6.13;4.00;;;19.20;95.10;;;;;;5052120;28;20525;-75
2021/06/29 03:45:45;;;;;;;4.33;3.93;;;19.20;95.10;;;;;;5052020;28;20462;-75
2021/06/29 03:48:12;;;;;;;4.53;4.23;;;19.20;95.10;;;;;;5051920;28;20476;-75
2021/06/29 03:50:39;;;;;;;4.97;4.57;;;19.20;95.10;;;;;;5051953;28;20517;-74
2021/06/29 03:53:07;;;;;;;4.60;4.30;;;19.10;95.80;;;;;;5051356;28;21110;-74
2021/06/29 03:55:35;;;;;;;8.30;4.80;;;19.10;96.20;;;;;;5051994;28;20438;-75
2021/06/29 03:58:02;;;;;;;5.07;4.50;;;19.20;96.00;;;;;;5052268;28;20477;-75
2021/06/29 04:00:29;;;;;;;10.50;3.90;;;19.20;95.50;;;;;;5046960;28;20464;-75
2021/06/29 04:02:56;;;;;;;4.17;3.87;;;19.10;95.40;;;;;;5011410;28;20608;-75
2021/06/29 04:05:22;;;;;;;4.70;4.30;;;19.20;95.50;;;;;;5012708;28;20461;-74
2021/06/29 04:07:50;;;;;;;4.27;3.87;;;19.20;95.50;;;;;;5011012;28;20570;-74
2021/06/29 04:10:18;;;;;;;4.70;4.30;;;19.20;95.40;;;;;;5012043;28;20488;-75
2021/06/29 04:12:45;;;;;;;5.20;4.13;;;19.30;95.30;;;;;;5012391;28;20526;-74
2021/06/29 04:15:14;;;;;;;4.10;3.80;;;19.30;95.10;;;;;;5013367;28;20466;-75
2021/06/29 04:17:41;;;;;;;4.13;3.83;;;19.30;94.60;;;;;;5017068;28;20485;-74
2021/06/29 04:20:11;;;;;;;3.73;3.43;;;19.30;95.10;;;;;;5019287;28;20459;-75
2021/06/29 04:22:39;;;;;;;3.97;3.67;;;19.30;94.20;;;;;;5019750;28;20453;-74
2021/06/29 04:25:07;;;;;;;14.10;4.90;;;19.30;94.30;;;;;;5031260;28;20896;-75
2021/06/29 04:27:36;;;;;;;4.80;4.30;;;19.30;94.40;;;;;;5027668;28;20457;-75
2021/06/29 04:30:04;;;;;;;6.40;4.93;;;19.30;94.10;;;;;;5035907;28;20457;-74
2021/06/29 04:32:31;;;;;;;4.23;3.83;;;19.40;93.70;;;;;;5035738;28;20456;-74
2021/06/29 04:34:58;;;;;;;3.97;3.77;;;19.50;93.10;;;;;;5039747;28;20419;-74
2021/06/29 04:37:25;;;;;;;5.67;4.07;;;19.40;92.20;;;;;;5031175;28;20477;-74
2021/06/29 04:39:52;;;;;;;7.37;4.00;;;19.40;92.50;;;;;;5039766;28;20479;-74
2021/06/29 04:42:19;;;;;;;4.00;3.60;;;19.50;92.70;;;;;;5025290;28;20533;-74
2021/06/29 04:44:47;;;;;;;3.93;3.73;;;19.60;92.00;;;;;;5016969;28;20460;-76
2021/06/29 04:47:14;;;;;;;5.70;4.23;;;19.60;91.50;;;;;;5016725;28;20437;-76
2021/06/29 04:49:42;;;;;;;4.83;4.30;;;19.60;91.50;;;;;;5016065;28;20462;-75
2021/06/29 04:52:09;;;;;;;3.80;3.50;;;19.60;91.50;;;;;;5017823;28;20491;-75
2021/06/29 04:54:36;;;;;;;4.60;4.10;;;19.70;91.60;;;;;;5021822;28;20461;-75
2021/06/29 04:57:03;;;;;;;7.93;4.40;;;19.70;91.60;;;;;;5017278;28;20440;-74
2021/06/29 04:59:30;;;;;;;4.30;3.90;;;19.70;91.60;;;;;;5016686;28;20490;-74
2021/06/29 05:01:58;;;;;;;4.00;3.70;;;19.80;91.60;;;;;;5016526;28;20469;-74
2021/06/29 05:04:25;;;;;;;4.67;4.27;;;19.80;91.40;;;;;;5015976;28;20490;-75
2021/06/29 05:06:52;;;;;;;4.47;4.10;;;19.90;90.80;;;;;;5017381;28;20779;-75
2021/06/29 05:09:19;;;;;;;4.10;3.80;;;19.90;90.10;;;;;;5018804;28;20470;-75
2021/06/29 05:11:46;;;;;;;4.30;4.00;;;19.90;90.00;;;;;;5016324;28;20574;-75
2021/06/29 05:14:13;;;;;;;5.13;3.80;;;20.00;88.90;;;;;;5022735;28;20633;-75
2021/06/29 05:16:40;;;;;;;8.33;4.20;;;20.00;88.10;;;;;;5030035;28;20528;-75
2021/06/29 05:19:08;;;;;;;3.83;3.53;;;20.10;88.30;;;;;;5033907;28;20514;-74
2021/06/29 05:21:35;;;;;;;3.80;3.50;;;20.20;87.00;;;;;;5036304;28;20486;-74
2021/06/29 05:24:02;;;;;;;5.47;3.70;;;20.20;86.60;;;;;;5034081;28;20549;-74
2021/06/29 05:26:29;;;;;;;3.27;3.07;;;20.40;86.20;;;;;;5036755;28;20546;-75
2021/06/29 05:28:55;;;;;;;4.90;4.13;;;20.50;85.80;;;;;;5023454;28;20558;-75
2021/06/29 05:31:22;;;;;;;3.60;3.30;;;20.60;83.30;;;;;;5034627;28;20458;-75
2021/06/29 05:33:49;;;;;;;3.60;3.30;;;20.70;83.00;;;;;;5033116;28;20482;-75
2021/06/29 05:36:17;;;;;;;9.17;4.00;;;20.60;79.50;;;;;;5019497;28;20544;-76
2021/06/29 05:38:44;;;;;;;5.67;3.43;;;20.50;79.40;;;;;;5017017;28;20450;-75
2021/06/29 05:41:11;;;;;;;4.07;3.47;;;20.60;79.60;;;;;;5014876;28;20479;-74
2021/06/29 05:43:38;;;;;;;5.73;3.23;;;20.90;79.20;;;;;;5022464;28;20512;-74
2021/06/29 05:46:05;;;;;;;4.10;3.30;;;21.00;77.70;;;;;;5033193;28;20525;-75
2021/06/29 05:48:33;;;;;;;8.10;3.17;;;21.20;75.50;;;;;;5034304;28;20530;-74
2021/06/29 05:51:01;;;;;;;3.27;2.97;;;21.20;74.90;;;;;;5034479;28;20447;-75
2021/06/29 05:53:30;;;;;;;4.10;3.07;;;21.30;74.30;;;;;;5035595;28;20553;-76
2021/06/29 05:55:57;;;;;;;6.07;3.63;;;21.20;73.40;;;;;;5034171;28;22269;-76
2021/06/29 05:58:25;;;;;;;3.13;2.93;;;21.30;72.80;;;;;;5023384;28;20445;-77
2021/06/29 06:00:52;;;;;;;4.53;3.13;;;21.40;72.10;;;;;;5034952;28;20511;-77
2021/06/29 06:03:20;;;;;;;7.93;3.80;;;21.50;70.20;;;;;;5048767;28;20465;-77
2021/06/29 06:05:47;;;;;;;3.70;3.23;;;21.60;70.80;;;;;;5020844;28;20501;-77
2021/06/29 06:08:14;;;;;;;11.40;3.80;;;21.70;69.30;;;;;;5015083;28;20485;-77
2021/06/29 06:10:43;;;;;;;5.63;3.03;;;21.90;69.50;;;;;;5033138;28;20535;-76
2021/06/29 06:13:10;;;;;;;7.00;2.90;;;22.10;67.40;;;;;;5021823;28;20534;-77
2021/06/29 06:15:37;;;;;;;6.83;3.20;;;22.10;65.70;;;;;;5016708;28;20425;-77
2021/06/29 06:18:06;;;;;;;4.67;3.20;;;22.30;66.00;;;;;;5017549;28;20926;-77
2021/06/29 06:20:33;;;;;;;5.50;3.10;;;22.40;65.60;;;;;;5018156;28;20527;-77
2021/06/29 06:23:16;;;;;;;3.50;3.20;;;22.60;64.20;;;;;;5033594;28;20456;-76
2021/06/29 06:25:44;;;;;;;3.40;3.10;;;22.70;63.30;;;;;;5018426;28;20487;-77
2021/06/29 06:28:11;;;;;;;3.87;3.20;;;22.70;62.50;;;;;;5016538;28;20531;-75
2021/06/29 06:30:40;;;;;;;4.03;2.80;;;22.70;62.40;;;;;;5018693;28;20678;-77
2021/06/29 06:33:07;;;;;;;3.20;2.90;;;22.80;61.10;;;;;;5020674;28;20528;-76
2021/06/29 06:35:35;;;;;;;3.40;2.73;;;22.90;61.20;;;;;;5019186;28;20491;-76
2021/06/29 06:38:02;;;;;;;3.40;2.77;;;22.90;61.20;;;;;;5015892;28;20469;-76
2021/06/29 06:40:29;;;;;;;3.53;3.07;;;22.90;61.20;;;;;;5019923;28;20472;-76
2021/06/29 06:42:58;;;;;;;5.23;2.93;;;23.00;61.30;;;;;;5038256;28;20426;-76
2021/06/29 06:45:25;;;;;;;7.43;2.80;;;22.90;61.20;;;;;;5025782;28;21003;-77
2021/06/29 06:47:52;;;;;;;3.20;2.67;;;23.10;59.90;;;;;;5036825;28;20523;-76
2021/06/29 06:50:19;;;;;;;4.90;2.53;;;23.30;58.80;;;;;;5054008;28;20428;-76
2021/06/29 06:52:46;;;;;;;7.27;2.30;;;23.90;57.20;;;;;;5051344;28;20456;-77
2021/06/29 06:55:13;;;;;;;2.30;2.20;;;24.40;54.40;;;;;;5027570;28;20548;-76
2021/06/29 06:57:42;;;;;;;7.93;2.70;;;24.60;53.20;;;;;;5030603;28;20851;-77
2021/06/29 07:00:11;;;;;;;2.40;2.30;;;24.50;53.10;;;;;;5034691;28;20461;-76
2021/06/29 07:02:40;;;;;;;8.80;2.97;;;24.50;53.10;;;;;;5033275;28;20497;-77
2021/06/29 07:05:08;;;;;;;3.63;2.83;;;24.60;53.20;;;;;;5026433;28;20429;-77
2021/06/29 07:07:35;;;;;;;3.13;2.70;;;24.60;51.80;;;;;;5018062;28;20716;-75
2021/06/29 07:10:02;;;;;;;3.40;2.70;;;24.40;53.00;;;;;;5017556;28;20576;-75
2021/06/29 07:12:29;;;;;;;5.73;2.90;;;24.20;52.80;;;;;;5024913;28;20558;-76
2021/06/29 07:14:56;;;;;;;6.30;3.10;;;23.90;53.80;;;;;;5023465;28;20538;-76
2021/06/29 07:17:24;;;;;;;5.30;2.90;;;23.90;54.20;;;;;;5031270;28;20455;-77
2021/06/29 07:19:52;;;;;;;4.93;2.37;;;23.90;54.30;;;;;;5034359;28;20456;-77
2021/06/29 07:22:20;;;;;;;3.53;2.43;;;23.90;53.80;;;;;;5033131;28;20849;-79
2021/06/29 07:24:47;;;;;;;3.30;2.60;;;23.80;54.30;;;;;;5031422;28;20462;-76
2021/06/29 07:27:14;;;;;;;2.30;2.20;;;23.80;54.70;;;;;;5031165;28;20582;-77
2021/06/29 07:29:41;;;;;;;3.00;2.70;;;23.80;53.50;;;;;;5036993;28;20819;-78
2021/06/29 07:32:09;;;;;;;2.60;2.40;;;23.70;52.30;;;;;;5037539;28;20525;-77
2021/06/29 07:34:37;;;;;;;3.07;2.33;;;23.60;53.30;;;;;;5021609;28;20503;-77
2021/06/29 07:37:05;;;;;;;2.90;2.70;;;23.50;54.10;;;;;;5015373;28;20555;-77
2021/06/29 07:39:32;;;;;;;3.50;2.70;;;23.40;54.60;;;;;;5024507;28;20456;-77
2021/06/29 07:41:59;;;;;;;2.30;2.10;;;23.40;55.20;;;;;;5017251;28;20493;-76
2021/06/29 07:44:26;;;;;;;2.50;2.30;;;23.40;53.90;;;;;;5031929;28;20432;-75
2021/06/29 07:46:54;;;;;;;2.97;2.60;;;23.40;54.00;;;;;;5035926;28;20481;-78
2021/06/29 07:49:21;;;;;;;2.90;2.70;;;23.40;53.00;;;;;;5032527;28;20492;-75
2021/06/29 07:51:49;;;;;;;2.47;2.27;;;23.30;53.90;;;;;;5037253;28;20438;-74
2021/06/29 07:54:17;;;;;;;3.57;2.80;;;23.30;54.70;;;;;;5038610;28;20519;-76
2021/06/29 07:56:44;;;;;;;2.60;2.40;;;23.20;54.60;;;;;;5036898;28;20484;-75
2021/06/29 07:59:11;;;;;;;3.00;2.80;;;23.20;55.60;;;;;;5037461;28;20529;-75
2021/06/29 08:01:39;;;;;;;3.43;2.60;;;23.30;54.20;;;;;;5042832;28;20513;-76
2021/06/29 08:04:06;;;;;;;2.77;2.57;;;23.40;53.60;;;;;;5037005;28;20796;-75
2021/06/29 08:06:33;;;;;;;2.83;2.60;;;23.50;53.50;;;;;;5021428;28;20453;-77
2021/06/29 08:09:02;;;;;;;3.70;2.30;;;23.60;52.30;;;;;;5019885;28;20566;-75
2021/06/29 08:11:29;;;;;;;2.87;2.67;;;23.30;53.20;;;;;;5016857;28;20538;-75
2021/06/29 08:13:55;;;;;;;2.77;2.23;;;23.00;54.90;;;;;;5016816;28;20472;-75
2021/06/29 08:16:22;;;;;;;2.50;2.40;;;23.20;53.10;;;;;;5017414;28;20448;-76
2021/06/29 08:18:49;;;;;;;2.30;2.20;;;23.20;51.80;;;;;;5020050;28;20868;-75
2021/06/29 08:21:16;;;;;;;6.13;2.47;;;23.20;51.90;;;;;;5033372;28;20436;-78
2021/06/29 08:23:44;;;;;;;2.20;2.10;;;23.20;51.60;;;;;;5035821;28;20460;-76
2021/06/29 08:26:12;;;;;;;2.80;2.53;;;23.10;51.30;;;;;;5019853;28;20512;-77
2021/06/29 08:28:39;;;;;;;5.90;2.30;;;23.20;51.90;;;;;;5018991;28;20521;-76
2021/06/29 08:31:06;;;;;;;3.83;2.60;;;23.40;52.00;;;;;;5017037;28;20514;-75
2021/06/29 08:33:34;;;;;;;2.50;2.30;;;23.60;50.20;;;;;;5019043;28;20992;-75
2021/06/29 08:36:02;;;;;;;2.50;2.10;;;23.70;49.30;;;;;;5018155;28;20556;-75
2021/06/29 08:38:28;;;;;;;7.77;2.87;;;24.10;48.90;;;;;;5027179;28;20486;-76
2021/06/29 08:40:56;;;;;;;2.37;2.17;;;24.30;48.20;;;;;;5039234;28;20550;-76
2021/06/29 08:43:24;;;;;;;2.27;2.10;;;23.80;48.60;;;;;;5031746;28;20466;-76
2021/06/29 08:45:51;;;;;;;2.40;2.20;;;24.30;49.00;;;;;;5023141;28;20501;-76
2021/06/29 08:48:19;;;;;;;2.03;1.83;;;24.80;47.40;;;;;;5017643;28;20486;-75
2021/06/29 08:50:47;;;;;;;2.10;1.90;;;25.00;46.00;;;;;;5020595;28;20416;-77
2021/06/29 08:53:15;;;;;;;2.27;2.13;;;25.20;45.90;;;;;;5016963;28;20478;-77
2021/06/29 08:55:44;;;;;;;2.27;2.13;;;25.20;44.30;;;;;;5018927;28;20437;-78
2021/06/29 08:58:11;;;;;;;2.53;2.33;;;25.30;44.80;;;;;;5024866;28;20482;-78
2021/06/29 09:00:39;;;;;;;1.90;1.80;;;25.40;42.80;;;;;;5027021;28;20500;-78
2021/06/29 09:03:07;;;;;;;2.20;2.10;;;25.30;42.80;;;;;;5031137;28;20466;-80
2021/06/29 09:05:34;;;;;;;3.23;2.60;;;25.30;43.70;;;;;;5046526;28;20503;-79
2021/06/29 09:08:07;;;;;;;2.40;2.20;;;25.30;43.70;;;;;;5046943;28;20452;-81
2021/06/29 09:10:35;;;;;;;2.53;2.33;;;25.40;42.70;;;;;;5059331;28;20459;-80
2021/06/29 09:13:04;;;;;;;2.70;1.90;;;25.30;43.70;;;;;;5045619;28;20479;-78
2021/06/29 09:15:37;;;;;;;3.93;2.03;;;25.30;43.00;;;;;;5015351;28;20451;-77
2021/06/29 09:18:18;;;;;;;8.00;3.43;;;25.10;43.50;;;;;;5015232;28;20482;-78
2021/06/29 09:20:48;;;;;;;2.40;2.20;;;25.10;43.90;;;;;;5015085;28;20898;-78
2021/06/29 09:23:16;;;;;;;3.17;2.10;;;25.30;43.70;;;;;;5022182;28;20482;-78
2021/06/29 09:25:47;;;;;;;2.37;2.23;;;24.90;43.40;;;;;;5035915;28;20567;-78
2021/06/29 09:28:16;;;;;;;3.37;2.70;;;24.80;43.30;;;;;;5024729;28;20507;-78
2021/06/29 09:30:46;;;;;;;2.43;2.10;;;25.20;43.60;;;;;;5030935;28;20447;-78
2021/06/29 09:33:16;;;;;;;4.67;2.63;;;25.80;42.60;;;;;;5027498;28;20500;-78
2021/06/29 09:35:45;;;;;;;2.40;2.30;;;26.50;39.60;;;;;;5040507;28;20470;-77
2021/06/29 09:38:19;;;;;;;2.30;2.20;;;26.60;40.10;;;;;;5048073;28;20433;-80
2021/06/29 09:40:47;;;;;;;2.37;2.17;;;26.30;39.60;;;;;;5024629;28;20429;-78
2021/06/29 09:43:16;;;;;;;2.30;2.10;;;26.40;39.30;;;;;;5017059;28;20418;-80
2021/06/29 09:45:45;;;;;;;3.53;2.10;;;26.70;37.50;;;;;;5025389;28;20491;-80
2021/06/29 09:48:30;;;;;;;2.93;2.17;;;26.80;37.90;;;;;;5036326;28;20498;-78
2021/06/29 09:51:01;;;;;;;2.73;2.53;;;26.70;38.20;;;;;;5052653;28;20415;-78
2021/06/29 09:53:31;;;;;;;2.37;2.00;;;27.00;37.90;;;;;;5041992;28;20481;-77
2021/06/29 09:56:00;;;;;;;2.33;2.17;;;27.20;36.70;;;;;;5015963;28;20481;-76
2021/06/29 09:58:28;;;;;;;2.23;2.13;;;27.40;34.80;;;;;;5017142;28;20496;-75
2021/06/29 10:00:57;;;;;;;3.57;1.70;;;27.50;34.90;;;;;;5015633;28;20495;-76
2021/06/29 10:03:31;;;;;;;3.03;2.40;;;27.20;34.70;;;;;;5014987;28;20528;-76
2021/06/29 10:06:01;;;;;;;4.40;2.50;;;26.90;36.00;;;;;;5015981;28;20932;-76
2021/06/29 10:08:30;;;;;;;2.60;2.40;;;27.00;35.60;;;;;;5016574;28;20484;-76
2021/06/29 10:11:25;;;;;;;2.40;2.10;;;27.20;35.00;;;;;;5017050;28;20451;-76
2021/06/29 10:13:59;;;;;;;2.73;2.40;;;27.00;35.90;;;;;;5001971;28;20481;-77
2021/06/29 10:16:28;;;;;;;2.17;2.07;;;27.10;35.60;;;;;;5016304;28;20489;-75
2021/06/29 10:21:47;;;;;;;3.13;2.33;;;27.00;34.50;;;;;;5009382;28;20762;-76
2021/06/29 10:24:17;;;;;;;3.23;2.30;;;27.30;34.70;;;;;;5015017;28;20494;-77
2021/06/29 10:26:46;;;;;;;2.70;2.50;;;27.90;35.20;;;;;;5015156;28;20904;-76
2021/06/29 10:29:14;;;;;;;2.57;2.37;;;27.90;35.20;;;;;;5043094;28;20504;-77
2021/06/29 10:31:43;;;;;;;2.60;2.20;;;26.70;38.00;;;;;;5050776;28;21049;-77
2021/06/29 10:34:12;;;;;;;2.30;2.20;;;26.90;37.90;;;;;;5033023;28;20456;-77
2021/06/29 10:36:43;;;;;;;2.50;2.30;;;27.40;35.90;;;;;;5038213;28;20450;-78
2021/06/29 10:39:12;;;;;;;3.50;2.17;;;27.40;35.50;;;;;;5056359;28;20489;-77
2021/06/29 10:41:41;;;;;;;2.50;2.40;;;27.50;34.90;;;;;;5053429;28;20415;-77
2021/06/29 10:44:12;;;;;;;2.23;2.13;;;26.80;37.20;;;;;;5053747;28;20419;-76
2021/06/29 10:46:50;;;;;;;2.83;2.63;;;26.90;37.60;;;;;;5055832;28;20443;-79
2021/06/29 10:49:36;;;;;;;2.10;2.00;;;27.30;35.10;;;;;;5056839;28;20443;-79
2021/06/29 10:52:07;;;;;;;2.37;2.17;;;27.50;34.90;;;;;;5038484;28;20491;-78
2021/06/29 10:54:48;;;;;;;2.70;2.50;;;27.10;34.60;;;;;;5034118;28;20460;-79
2021/06/29 10:57:18;;;;;;;3.10;2.43;;;27.10;34.70;;;;;;5044479;28;20427;-76
2021/06/29 10:59:48;;;;;;;3.30;2.70;;;27.10;34.60;;;;;;5033068;28;20496;-77
2021/06/29 11:02:28;;;;;;;5.03;2.43;;;27.30;34.80;;;;;;5032786;28;20463;-77
2021/06/29 11:05:04;;;;;;;2.87;2.67;;;27.50;34.90;;;;;;5015168;28;20493;-77
2021/06/29 11:07:45;;;;;;;2.70;2.50;;;27.70;35.00;;;;;;5015789;28;20464;-77
2021/06/29 11:10:28;;;;;;;2.30;2.10;;;27.80;35.10;;;;;;5016156;28;20414;-77
2021/06/29 11:12:57;;;;;;;2.80;2.60;;;27.70;35.10;;;;;;5019537;28;20464;-77
2021/06/29 11:15:42;;;;;;;2.60;2.40;;;28.00;33.60;;;;;;5017324;28;20853;-77
2021/06/29 11:18:13;;;;;;;2.90;2.10;;;27.10;34.60;;;;;;5018819;28;20511;-78
2021/06/29 11:20:44;;;;;;;2.93;2.30;;;27.20;34.70;;;;;;5026407;28;20974;-77
2021/06/29 11:23:17;;;;;;;2.50;2.33;;;27.60;33.90;;;;;;5043551;28;20549;-76
2021/06/29 11:25:46;;;;;;;3.10;2.77;;;27.60;34.10;;;;;;5045938;28;20515;-77
2021/06/29 11:28:17;;;;;;;2.43;2.23;;;27.30;34.80;;;;;;5039633;28;20480;-76
2021/06/29 11:31:06;;;;;;;4.70;2.57;;;27.80;33.80;;;;;;5032552;28;20482;-77
2021/06/29 11:33:37;;;;;;;2.50;2.20;;;27.80;33.50;;;;;;5018718;28;20944;-77
2021/06/29 11:36:07;;;;;;;2.83;2.57;;;27.50;34.90;;;;;;5016897;28;20462;-77
2021/06/29 11:38:37;;;;;;;5.70;2.60;;;27.60;35.00;;;;;;5021803;28;20456;-77
2021/06/29 11:41:29;;;;;;;2.90;2.67;;;27.70;33.50;;;;;;5025323;28;20463;-78
2021/06/29 11:44:00;;;;;;;2.60;2.37;;;27.90;33.10;;;;;;5017340;28;20460;-77
2021/06/29 11:46:50;;;;;;;5.80;2.80;;;27.40;35.10;;;;;;5026570;28;20489;-77
2021/06/29 11:49:18;;;;;;;2.60;2.40;;;27.80;34.50;;;;;;5033190;28;20452;-76
2021/06/29 11:51:52;;;;;;;4.07;2.77;;;27.90;35.20;;;;;;5026436;28;20534;-76
2021/06/29 11:54:32;;;;;;;2.77;2.57;;;26.50;38.00;;;;;;5021942;28;20517;-78
2021/06/29 11:57:00;;;;;;;2.60;2.50;;;26.00;40.40;;;;;;5037960;28;20491;-78
2021/06/29 11:59:28;;;;;;;2.43;2.33;;;26.50;39.00;;;;;;5021885;28;20497;-80
2021/06/29 12:02:02;;;;;;;3.70;2.77;;;26.60;38.00;;;;;;5020990;28;20593;-78
2021/06/29 12:04:29;;;;;;;2.87;2.50;;;26.60;38.30;;;;;;5023063;28;20513;-79
2021/06/29 12:07:06;;;;;;;2.77;2.60;;;26.40;39.00;;;;;;5024357;28;20546;-77
2021/06/29 12:09:35;;;;;;;6.27;2.50;;;26.10;39.80;;;;;;5025415;28;20457;-81
2021/06/29 12:12:23;;;;;;;3.20;2.90;;;25.90;40.90;;;;;;5026398;28;20460;-79
2021/06/29 12:15:07;;;;;;;2.67;2.47;;;25.60;43.10;;;;;;5032701;28;20784;-80
2021/06/29 12:17:35;;;;;;;2.83;1.77;;;25.00;43.50;;;;;;5035951;28;20775;-78
2021/06/29 12:20:07;;;;;;;4.73;2.00;;;23.80;48.50;;;;;;5026861;28;20436;-78
2021/06/29 12:22:41;;;;;;;4.83;2.70;;;22.10;61.50;;;;;;5043342;23;20526;-79
2021/06/29 12:25:11;;;;;;;5.23;3.17;;;20.50;77.20;;;;;;5025277;28;20449;-80
2021/06/29 12:27:44;;;;;;;7.20;4.20;;;19.30;93.40;;;;;;5025893;28;20488;-81
2021/06/29 12:30:29;;;;;;;5.60;3.40;;;18.80;99.90;;;;;;5025396;28;20465;-84
2021/06/29 12:32:57;;;;;;;3.90;3.30;;;18.40;99.90;;;;;;5022864;28;20482;-82
2021/06/29 12:35:30;;;;;;;4.20;3.40;;;18.20;99.90;;;;;;5023997;28;21041;-80
2021/06/29 12:38:01;;;;;;;3.87;3.30;;;17.90;99.90;;;;;;5023513;28;20792;-80
2021/06/29 12:40:31;;;;;;;4.17;3.77;;;17.60;99.90;;;;;;5024533;28;20839;-82
2021/06/29 12:42:58;;;;;;;4.47;4.00;;;17.60;99.90;;;;;;5022465;28;20521;-83
2021/06/29 12:45:30;;;;;;;3.97;3.67;;;17.60;99.90;;;;;;5021820;28;20543;-81
2021/06/29 12:48:31;;;;;;;5.83;3.83;;;17.60;99.90;;;;;;5026365;28;20452;-81
2021/06/29 12:51:01;;;;;;;5.03;3.40;;;17.60;99.90;;;;;;5032108;28;20454;-81
2021/06/29 12:53:30;;;;;;;5.80;3.10;;;17.40;99.90;;;;;;5024181;28;20488;-79
2021/06/29 12:56:16;;;;;;;3.67;3.37;;;17.40;99.90;;;;;;5027418;28;20491;-81
2021/06/29 12:58:45;;;;;;;3.03;2.73;;;17.40;99.90;;;;;;5032191;28;20478;-81
2021/06/29 13:01:12;;;;;;;3.23;2.93;;;17.30;99.90;;;;;;5019022;28;20489;-79